Time;durP1;ratioP1;P1;durP2;ratioP2;P2;SDS_P1;SDS_P2;PMS_P1;PMS_P2;Temp;Humidity;BMP_temperature;BMP_pressure;BME280_temperature;BME280_humidity;BME280_pressure;Samples;Min_cycle;Max_cycle;Signal;HPM_P1;HPM_P2
2022/04/28 00:01:38;;;;;;;17.13;6.80;;;;;;;14.92;43.80;103054.19;5030574;28;20029;-73
2022/04/28 00:04:04;;;;;;;18.83;7.13;;;;;;;14.82;43.54;103049.69;5030394;28;20040;-74
2022/04/28 00:06:29;;;;;;;15.10;7.33;;;;;;;14.65;43.76;103054.84;5039911;28;20421;-73
2022/04/28 00:08:55;;;;;;;16.87;8.10;;;;;;;14.69;43.57;103052.25;5044853;28;20672;-73
2022/04/28 00:11:20;;;;;;;21.37;7.87;;;;;;;14.51;43.55;103063.47;5048835;28;20040;-73
2022/04/28 00:13:45;;;;;;;22.13;8.47;;;;;;;14.50;43.64;103060.81;5045129;28;20036;-73
2022/04/28 00:16:11;;;;;;;22.67;8.23;;;;;;;14.42;43.88;103052.84;5032972;28;20029;-73
2022/04/28 00:18:36;;;;;;;16.00;8.17;;;;;;;14.84;43.21;103055.88;5036797;28;20036;-73
2022/04/28 00:21:02;;;;;;;22.67;8.30;;;;;;;14.66;44.26;103062.75;5048575;28;20112;-73
2022/04/28 00:23:27;;;;;;;25.17;8.20;;;;;;;14.51;44.21;103054.69;5048752;28;20025;-73
2022/04/28 00:25:53;;;;;;;18.97;7.93;;;;;;;14.46;44.20;103059.03;5045976;28;20044;-73
2022/04/28 00:28:20;;;;;;;17.50;8.40;;;;;;;14.36;44.37;103058.94;5043264;28;20025;-73
2022/04/28 00:30:46;;;;;;;21.20;8.63;;;;;;;14.37;44.18;103065.97;5034904;28;20052;-73
2022/04/28 00:33:11;;;;;;;24.47;9.03;;;;;;;14.56;43.44;103053.88;5038802;28;20061;-73
2022/04/28 00:35:38;;;;;;;19.50;7.83;;;;;;;14.47;44.39;103050.28;5042377;28;20499;-73
2022/04/28 00:38:04;;;;;;;15.67;7.43;;;;;;;14.50;44.09;103058.19;5033286;28;20029;-73
2022/04/28 00:40:29;;;;;;;23.23;8.00;;;;;;;14.39;43.88;103053.69;5048071;28;20028;-74
2022/04/28 00:43:18;;;;;;;12.33;7.47;;;;;;;14.18;44.46;103058.78;5044902;28;20036;-73
2022/04/28 00:45:40;;;;;;;20.67;8.13;;;;;;;14.31;43.72;103050.09;5031361;28;20045;-73
2022/04/28 00:50:50;;;;;;;15.17;8.07;;;;;;;14.21;44.38;103043.00;5034322;28;20056;-73
2022/04/28 00:53:15;;;;;;;18.83;8.07;;;;;;;14.29;43.98;103051.84;5029372;28;20113;-74
2022/04/28 00:55:41;;;;;;;17.50;8.77;;;;;;;14.68;43.36;103050.47;5029157;28;20441;-73
2022/04/28 00:58:07;;;;;;;21.37;8.50;;;;;;;14.43;43.61;103050.22;5028697;28;20021;-73
2022/04/28 01:00:33;;;;;;;13.80;7.13;;;;;;;14.21;44.54;103058.78;5030283;28;20515;-73
2022/04/28 01:02:58;;;;;;;17.30;8.27;;;;;;;14.33;44.45;103048.41;5030143;28;20034;-73
2022/04/28 01:05:26;;;;;;;19.03;8.33;;;;;;;14.18;44.34;103049.13;5048491;28;20032;-73
2022/04/28 01:07:51;;;;;;;22.20;9.90;;;;;;;14.24;44.97;103053.56;5048026;28;20029;-73
2022/04/28 01:10:17;;;;;;;15.27;8.77;;;;;;;14.13;44.27;103057.84;5047601;28;20425;-74
2022/04/28 01:12:43;;;;;;;15.50;8.03;;;;;;;14.19;45.05;103050.00;5025368;28;20037;-73
2022/04/28 01:15:09;;;;;;;19.63;7.93;;;;;;;14.16;44.68;103055.22;5062179;28;20022;-73
2022/04/28 01:17:34;;;;;;;24.60;9.63;;;;;;;14.05;44.95;103058.63;5040297;28;20033;-73
2022/04/28 01:20:00;;;;;;;18.57;8.40;;;;;;;14.33;44.63;103050.13;5047371;28;20116;-73
2022/04/28 01:22:26;;;;;;;20.37;8.30;;;;;;;14.49;44.16;103053.78;5047476;28;20045;-73
2022/04/28 01:24:51;;;;;;;15.97;8.20;;;;;;;14.30;44.50;103048.38;5047103;28;20383;-74
2022/04/28 01:27:18;;;;;;;16.73;8.20;;;;;;;14.20;44.26;103051.75;5048319;28;20036;-73
2022/04/28 01:29:43;;;;;;;14.70;7.50;;;;;;;14.17;44.67;103057.00;5048318;28;20052;-74
2022/04/28 01:32:09;;;;;;;16.57;8.67;;;;;;;14.31;43.88;103054.50;5043724;28;20033;-73
2022/04/28 01:34:34;;;;;;;19.27;8.73;;;;;;;13.98;44.66;103061.16;5046438;28;20036;-73
2022/04/28 01:36:59;;;;;;;18.20;8.87;;;;;;;13.80;45.14;103059.22;5045016;28;20029;-74
2022/04/28 01:39:25;;;;;;;25.43;9.50;;;;;;;13.64;46.00;103056.41;5036173;28;20033;-73
2022/04/28 01:41:50;;;;;;;18.53;9.37;;;;;;;13.83;45.61;103059.25;5046047;28;20036;-73
2022/04/28 01:44:16;;;;;;;17.63;8.87;;;;;;;13.69;45.54;103059.94;5045989;28;20504;-73
2022/04/28 01:46:41;;;;;;;17.17;8.03;;;;;;;13.78;45.96;103061.84;5036917;28;20033;-73
2022/04/28 01:49:07;;;;;;;16.70;9.57;;;;;;;14.05;44.88;103058.63;5055831;28;20036;-74
2022/04/28 01:57:00;;;;;;;20.17;9.20;;;;;;;13.89;45.32;103061.97;5055171;28;20514;-74
2022/04/28 01:59:25;;;;;;;19.17;8.03;;;;;;;14.10;44.94;103065.69;5054803;28;20119;-73
2022/04/28 02:01:50;;;;;;;18.30;8.90;;;;;;;14.10;44.11;103063.06;5054508;28;20032;-74
2022/04/28 02:04:16;;;;;;;13.63;7.73;;;;;;;13.80;44.54;103067.97;5037968;28;20116;-73
2022/04/28 02:06:43;;;;;;;15.97;7.70;;;;;;;13.73;45.13;103067.00;5039217;28;20044;-74
2022/04/28 02:09:08;;;;;;;17.97;8.27;;;;;;;13.83;44.93;103067.13;5035032;28;20462;-73
2022/04/28 02:11:34;;;;;;;18.77;8.30;;;;;;;13.76;45.12;103063.53;5055265;28;20063;-73
2022/04/28 02:13:59;;;;;;;15.97;8.17;;;;;;;13.68;45.23;103063.47;5053836;28;20443;-73
2022/04/28 02:16:24;;;;;;;11.97;6.70;;;;;;;13.87;45.55;103063.69;5044288;28;20025;-73
2022/04/28 02:18:49;;;;;;;14.83;8.17;;;;;;;13.89;44.09;103067.22;5052334;28;20064;-74
2022/04/28 02:21:15;;;;;;;16.43;7.40;;;;;;;13.93;45.12;103069.03;5053699;28;20057;-73
2022/04/28 02:23:40;;;;;;;14.70;7.23;;;;;;;14.18;43.87;103071.91;5054011;28;20025;-73
2022/04/28 02:26:05;;;;;;;15.53;8.53;;;;;;;14.15;43.36;103074.50;5046615;28;20470;-73
2022/04/28 02:28:31;;;;;;;16.20;7.70;;;;;;;13.92;44.14;103072.50;5038429;28;20056;-74
2022/04/28 02:30:56;;;;;;;13.50;7.00;;;;;;;13.91;44.25;103070.72;5053705;28;20492;-73
2022/04/28 02:33:21;;;;;;;14.67;7.07;;;;;;;14.04;44.13;103071.75;5039552;28;20696;-73
2022/04/28 02:35:47;;;;;;;12.73;7.97;;;;;;;13.52;44.52;103069.38;5041465;28;20183;-73
2022/04/28 02:38:13;;;;;;;17.37;9.07;;;;;;;13.67;44.62;103069.56;5034486;28;20489;-73
2022/04/28 02:40:38;;;;;;;17.23;8.03;;;;;;;13.52;45.02;103072.03;5082479;28;20361;-73
2022/04/28 02:43:03;;;;;;;12.97;7.00;;;;;;;13.66;44.53;103070.44;5053603;28;20134;-73
2022/04/28 02:45:29;;;;;;;14.20;7.73;;;;;;;13.60;44.56;103070.38;5052409;28;20029;-73
2022/04/28 02:47:55;;;;;;;17.07;7.67;;;;;;;13.72;44.32;103060.00;5046584;28;20968;-73
2022/04/28 02:50:21;;;;;;;14.03;7.57;;;;;;;13.39;45.41;103066.59;5052071;28;20028;-74
2022/04/28 02:52:49;;;;;;;12.83;6.83;;;;;;;13.59;45.46;103058.09;5051919;28;20029;-73
2022/04/28 02:55:14;;;;;;;16.93;6.80;;;;;;;13.56;44.89;103071.19;5050852;28;20040;-73
2022/04/28 02:57:40;;;;;;;23.47;7.17;;;;;;;13.52;45.90;103066.75;5049966;28;20032;-73
2022/04/28 03:00:06;;;;;;;14.67;7.07;;;;;;;13.64;44.91;103061.66;5051206;28;20043;-73
2022/04/28 03:02:31;;;;;;;18.30;8.30;;;;;;;13.11;46.49;103064.41;5037508;28;20029;-73
2022/04/28 03:04:57;;;;;;;12.37;6.47;;;;;;;13.58;45.17;103061.56;5045324;28;20159;-73
2022/04/28 03:12:51;;;;;;;16.43;7.10;;;;;;;13.63;44.54;103070.41;5051474;28;20451;-73
2022/04/28 03:15:17;;;;;;;19.27;7.03;;;;;;;13.67;44.83;103059.06;5048706;28;20029;-74
2022/04/28 03:17:43;;;;;;;17.97;6.87;;;;;;;13.61;44.87;103061.59;5034154;28;20096;-74
2022/04/28 03:20:09;;;;;;;15.83;6.67;;;;;;;13.66;45.63;103066.94;5048019;28;20055;-73
2022/04/28 03:22:36;;;;;;;14.57;6.87;;;;;;;13.30;45.87;103062.91;5030519;28;20417;-73
2022/04/28 03:25:02;;;;;;;15.80;7.13;;;;;;;13.59;45.57;103058.09;5036976;28;20029;-73
2022/04/28 03:27:30;;;;;;;17.53;6.63;;;;;;;13.84;44.31;103063.66;5030821;28;20099;-73
2022/04/28 03:29:56;;;;;;;22.70;6.90;;;;;;;13.62;44.70;103063.38;5047396;28;20098;-73
2022/04/28 03:32:21;;;;;;;16.37;7.07;;;;;;;13.62;44.59;103063.38;5045921;28;20049;-74
2022/04/28 03:34:46;;;;;;;15.23;6.37;;;;;;;13.66;45.10;103070.44;5039805;28;20210;-73
2022/04/28 03:37:12;;;;;;;18.60;6.50;;;;;;;13.69;44.62;103064.34;5044132;28;20493;-73
2022/04/28 03:39:38;;;;;;;15.10;6.60;;;;;;;13.44;45.32;103060.53;5049576;28;20068;-73
2022/04/28 03:42:04;;;;;;;14.80;6.70;;;;;;;13.72;44.96;103065.28;5029918;28;20033;-73
2022/04/28 03:44:30;;;;;;;21.53;7.70;;;;;;;13.64;44.85;103064.28;5046142;28;20047;-74
2022/04/28 03:46:56;;;;;;;18.10;6.27;;;;;;;13.61;44.77;103060.72;5033129;28;20487;-73
2022/04/28 03:49:21;;;;;;;11.77;6.47;;;;;;;13.56;45.53;103058.94;5039454;28;20033;-74
2022/04/28 03:51:47;;;;;;;21.00;7.87;;;;;;;13.37;46.25;103065.69;5036593;28;20064;-74
2022/04/28 03:54:12;;;;;;;14.97;7.27;;;;;;;13.34;46.21;103062.09;5046527;28;20065;-74
2022/04/28 03:56:37;;;;;;;20.20;7.70;;;;;;;13.02;46.57;103059.88;5048392;28;20036;-73
2022/04/28 03:59:03;;;;;;;23.47;7.93;;;;;;;13.45;46.34;103070.16;5048458;28;20056;-74
2022/04/28 04:01:29;;;;;;;14.07;7.43;;;;;;;13.67;45.23;103066.94;5049417;28;20119;-74
2022/04/28 04:03:55;;;;;;;19.03;7.90;;;;;;;13.44;46.00;103068.41;5037880;28;20522;-74
2022/04/28 04:06:20;;;;;;;21.63;7.73;;;;;;;12.93;47.49;103063.25;5047656;28;20569;-74
2022/04/28 04:08:45;;;;;;;19.03;7.30;;;;;;;13.07;47.13;103059.09;5049039;28;20492;-74
2022/04/28 04:11:12;;;;;;;17.43;7.73;;;;;;;12.95;48.14;103053.63;5050594;28;20071;-74
2022/04/28 04:13:38;;;;;;;17.07;7.70;;;;;;;13.80;45.70;103067.09;5049709;28;20040;-74
2022/04/28 04:16:04;;;;;;;23.93;7.70;;;;;;;13.74;45.79;103068.78;5043920;28;20544;-75
2022/04/28 04:18:29;;;;;;;14.43;7.17;;;;;;;14.10;45.06;103065.69;5048078;28;20029;-74
2022/04/28 04:20:55;;;;;;;16.57;7.97;;;;;;;13.89;45.28;103065.47;5049558;28;20043;-74
2022/04/28 04:23:20;;;;;;;15.23;6.93;;;;;;;13.77;45.07;103060.06;5028826;28;20405;-74
2022/04/28 04:25:45;;;;;;;15.57;7.00;;;;;;;13.33;46.56;103061.22;5030739;28;20029;-74
2022/04/28 04:28:11;;;;;;;14.30;6.50;;;;;;;13.32;46.44;103067.31;5027865;28;20076;-74
2022/04/28 04:33:20;;;;;;;19.33;6.47;;;;;;;13.57;46.38;103071.22;5012695;28;20049;-74
2022/04/28 04:35:46;;;;;;;18.33;7.20;;;;;;;14.24;44.57;103070.22;5009082;28;20026;-74
2022/04/28 04:38:11;;;;;;;15.70;7.60;;;;;;;13.92;45.49;103067.25;5021480;28;20026;-74
2022/04/28 04:40:36;;;;;;;16.20;7.37;;;;;;;13.36;46.56;103077.03;5028757;28;20033;-74
2022/04/28 04:43:03;;;;;;;15.80;6.73;;;;;;;13.96;45.18;103074.31;5016706;28;20176;-74
2022/04/28 04:45:28;;;;;;;14.47;7.20;;;;;;;13.97;44.93;103077.81;5009575;28;20106;-74
2022/04/28 04:47:54;;;;;;;18.47;6.57;;;;;;;13.57;45.52;103096.59;5020885;28;20556;-74
2022/04/28 04:50:19;;;;;;;17.43;6.97;;;;;;;14.18;44.71;103095.59;5012863;28;20044;-74
2022/04/28 04:52:45;;;;;;;15.57;7.57;;;;;;;13.60;45.59;103094.03;5011642;28;20472;-74
2022/04/28 04:55:10;;;;;;;15.70;8.00;;;;;;;13.75;45.41;103101.19;5015133;28;20026;-73
2022/04/28 04:57:36;;;;;;;11.37;6.17;;;;;;;14.27;44.32;103098.28;5036920;28;20048;-74
2022/04/28 05:00:04;;;;;;;12.97;6.67;;;;;;;13.91;44.84;103107.53;5031460;28;20120;-73
2022/04/28 05:02:29;;;;;;;18.40;7.23;;;;;;;13.48;45.58;103112.25;5020205;28;20076;-74
2022/04/28 05:04:55;;;;;;;16.40;6.57;;;;;;;13.40;46.04;103112.13;5018697;28;20040;-74
2022/04/28 05:07:20;;;;;;;10.50;6.10;;;;;;;14.20;44.63;103107.00;5028566;28;20444;-74
2022/04/28 05:09:45;;;;;;;11.40;6.27;;;;;;;13.76;45.07;103112.59;5027459;28;20044;-74
2022/04/28 05:12:11;;;;;;;18.17;7.27;;;;;;;13.58;45.49;103104.47;5013950;28;20037;-74
2022/04/28 05:14:36;;;;;;;19.37;6.63;;;;;;;13.51;45.90;103122.78;5009494;28;20531;-73
2022/04/28 05:17:02;;;;;;;14.20;6.00;;;;;;;13.51;45.87;103117.53;5018582;28;20194;-74
2022/04/28 05:19:28;;;;;;;17.63;7.17;;;;;;;13.34;46.06;103119.88;5009465;28;20099;-74
2022/04/28 05:21:55;;;;;;;14.43;6.70;;;;;;;13.99;44.54;103123.41;5034105;28;20064;-73
2022/04/28 05:24:21;;;;;;;14.13;6.47;;;;;;;14.57;43.49;103131.06;5047836;28;20025;-74
2022/04/28 05:26:46;;;;;;;14.87;6.37;;;;;;;13.94;44.38;103131.22;5047467;28;20118;-73
2022/04/28 05:29:12;;;;;;;16.43;7.63;;;;;;;13.93;44.84;103134.75;5048419;28;20075;-74
2022/04/28 05:31:37;;;;;;;16.17;6.43;;;;;;;13.93;44.18;103132.13;5039245;28;20032;-73
2022/04/28 05:34:02;;;;;;;17.13;6.23;;;;;;;13.47;44.62;103131.50;5032020;28;20033;-74
2022/04/28 05:36:28;;;;;;;15.80;6.97;;;;;;;14.48;43.70;103146.75;5028014;28;20436;-73
2022/04/28 05:38:57;;;;;;;12.77;6.20;;;;;;;14.34;43.27;103150.13;5028930;28;20026;-73
2022/04/28 05:41:23;;;;;;;14.10;5.80;;;;;;;14.50;43.25;103156.44;5038688;28;20033;-73
2022/04/28 05:46:33;;;;;;;12.37;6.33;;;;;;;14.64;42.68;103159.22;5045679;28;20048;-74
2022/04/28 05:48:58;;;;;;;11.80;6.13;;;;;;;14.57;43.29;103157.38;5028577;28;20393;-74
2022/04/28 05:51:24;;;;;;;16.00;6.40;;;;;;;14.54;42.80;103162.63;5028507;28;20482;-74
2022/04/28 05:53:49;;;;;;;20.03;7.37;;;;;;;14.99;42.32;103163.94;5043162;28;20115;-74
2022/04/28 05:56:14;;;;;;;15.47;6.67;;;;;;;14.59;42.75;103176.72;5045335;28;20146;-73
2022/04/28 05:58:39;;;;;;;12.93;6.17;;;;;;;13.96;43.93;103181.19;5022797;28;20384;-73
2022/04/28 06:01:05;;;;;;;14.97;5.87;;;;;;;15.02;42.25;103179.78;5029910;28;20048;-73
2022/04/28 06:03:30;;;;;;;15.20;6.37;;;;;;;15.08;41.60;103182.47;5029696;28;20477;-74
2022/04/28 06:05:56;;;;;;;14.83;5.43;;;;;;;14.04;43.38;103188.34;5040094;28;20053;-74
2022/04/28 06:08:21;;;;;;;12.73;5.87;;;;;;;14.48;42.32;103189.75;5047269;28;20037;-73
2022/04/28 06:10:46;;;;;;;15.17;5.90;;;;;;;14.48;43.11;103188.84;5044640;28;20025;-73
2022/04/28 06:13:12;;;;;;;15.00;7.67;;;;;;;14.30;42.80;103190.44;5047556;28;20060;-73
2022/04/28 06:15:37;;;;;;;16.50;5.73;;;;;;;14.87;41.95;103195.44;5044328;28;20029;-73
2022/04/28 06:18:03;;;;;;;14.30;6.03;;;;;;;14.18;43.03;103206.06;5046022;28;20111;-73
2022/04/28 06:20:28;;;;;;;14.60;5.60;;;;;;;14.92;41.88;103201.63;5047617;28;20032;-73
2022/04/28 06:22:53;;;;;;;12.40;6.93;;;;;;;14.47;42.73;103197.63;5047792;28;20037;-73
2022/04/28 06:25:19;;;;;;;9.87;5.97;;;;;;;15.44;40.64;103186.25;5049120;28;20040;-73
2022/04/28 06:27:45;;;;;;;10.30;5.63;;;;;;;14.87;41.62;103198.06;5038193;28;20061;-72
2022/04/28 06:30:10;;;;;;;10.67;6.00;;;;;;;15.86;39.93;103196.22;5049369;28;20118;-71
2022/04/28 06:32:36;;;;;;;12.03;5.13;;;;;;;15.05;41.32;103203.50;5051392;28;20029;-72
2022/04/28 06:35:03;;;;;;;13.90;5.63;;;;;;;16.05;40.33;103205.97;5050997;28;20056;-72
2022/04/28 06:37:29;;;;;;;13.90;5.37;;;;;;;15.52;40.44;103209.13;5047265;28;20035;-72
2022/04/28 06:39:54;;;;;;;13.13;5.07;;;;;;;16.07;39.92;103209.50;5051480;28;20459;-71
2022/04/28 06:42:20;;;;;;;12.83;5.63;;;;;;;15.85;40.40;103210.25;5052230;28;20025;-72
2022/04/28 06:44:45;;;;;;;8.23;5.33;;;;;;;16.59;39.26;103216.72;5052420;28;20453;-72
2022/04/28 06:47:11;;;;;;;16.87;5.03;;;;;;;16.97;37.94;103220.34;5045489;28;20034;-72
2022/04/28 06:49:37;;;;;;;15.90;5.27;;;;;;;16.43;39.06;103223.72;5038755;28;20029;-72
2022/04/28 06:52:02;;;;;;;11.17;4.80;;;;;;;15.75;39.45;103236.53;5051246;28;20472;-73
2022/04/28 06:54:28;;;;;;;8.20;4.30;;;;;;;15.83;39.71;103230.47;5050437;28;20037;-73
2022/04/28 06:56:53;;;;;;;7.27;4.47;;;;;;;15.23;40.51;103244.03;5042609;28;20029;-72
2022/04/28 06:59:20;;;;;;;16.00;5.77;;;;;;;16.38;38.18;103230.72;5034604;28;20122;-73
2022/04/28 07:01:46;;;;;;;12.00;4.57;;;;;;;16.34;38.21;103228.97;5049528;28;20035;-74
2022/04/28 07:04:11;;;;;;;12.00;4.57;;;;;;;18.12;36.08;103227.28;5050743;28;20017;-75
2022/04/28 07:06:36;;;;;;;11.87;4.77;;;;;;;20.00;32.96;103225.00;5048871;28;20044;-74
2022/04/28 07:09:02;;;;;;;10.03;4.33;;;;;;;20.82;31.30;103221.25;5068170;28;20377;-74
2022/04/28 07:11:27;;;;;;;10.80;4.03;;;;;;;21.23;30.17;103232.13;5049117;28;20495;-75
2022/04/28 07:13:52;;;;;;;9.63;3.80;;;;;;;21.24;28.65;103232.97;5043832;28;20025;-75
2022/04/28 07:16:18;;;;;;;9.75;3.25;;;;;;;23.28;28.29;103224.25;5028412;28;20095;-74
2022/04/28 07:18:44;;;;;;;8.73;3.55;;;;;;;22.87;27.79;103240.38;5038602;28;20072;-75
2022/04/28 07:21:09;;;;;;;9.90;3.20;;;;;;;21.97;27.31;103245.88;5042717;28;20028;-74
2022/04/28 07:23:34;;;;;;;10.35;3.22;;;;;;;23.26;26.37;103250.13;5043974;28;20060;-74
2022/04/28 07:26:01;;;;;;;10.80;2.80;;;;;;;23.50;25.74;103255.72;5060455;28;20084;-75
2022/04/28 07:28:26;;;;;;;10.45;2.85;;;;;;;23.32;25.27;103251.75;5062340;28;20052;-75
2022/04/28 07:30:52;;;;;;;7.50;2.80;;;;;;;24.27;24.72;103252.72;5050005;28;20041;-75
2022/04/28 07:33:17;;;;;;;9.27;3.17;;;;;;;24.27;23.94;103247.38;5044214;28;20044;-75
2022/04/28 07:35:42;;;;;;;9.10;2.80;;;;;;;23.59;25.06;103246.56;5037650;28;20033;-75
2022/04/28 07:38:08;;;;;;;10.07;2.72;;;;;;;23.59;24.76;103249.25;5041461;28;20032;-75
2022/04/28 07:40:34;;;;;;;6.13;2.30;;;;;;;23.97;24.42;103250.88;5043448;28;20048;-75
2022/04/28 07:42:59;;;;;;;7.00;2.80;;;;;;;23.61;25.13;103255.44;5042891;28;20385;-75
2022/04/28 07:45:25;;;;;;;9.02;2.83;;;;;;;22.92;25.43;103268.72;5041422;28;20095;-74
2022/04/28 07:47:50;;;;;;;4.57;2.13;;;;;;;25.79;23.15;103260.25;5030449;28;20040;-75
2022/04/28 07:50:16;;;;;;;7.45;2.05;;;;;;;26.77;22.22;103260.13;5031809;28;20057;-75
2022/04/28 07:52:42;;;;;;;7.60;2.40;;;;;;;27.26;21.79;103271.47;5042173;28;20064;-74
2022/04/28 07:55:09;;;;;;;5.32;2.08;;;;;;;25.43;22.46;103274.03;5046317;28;20484;-75
2022/04/28 07:57:34;;;;;;;7.43;2.47;;;;;;;26.90;21.55;103266.72;5040026;28;20032;-75
2022/04/28 08:00:00;;;;;;;5.63;2.38;;;;;;;26.40;21.42;103272.28;5042539;28;20107;-75
2022/04/28 08:02:26;;;;;;;10.48;4.47;;;;;;;26.69;21.49;103262.22;5050613;28;20059;-75
2022/04/28 08:04:52;;;;;;;9.30;2.72;;;;;;;25.77;22.93;103267.44;5049997;28;20511;-74
2022/04/28 08:07:18;;;;;;;6.43;2.00;;;;;;;26.85;20.83;103271.41;5032263;28;20037;-75
2022/04/28 08:09:43;;;;;;;8.88;2.78;;;;;;;26.18;21.87;103277.59;5049554;28;20029;-75
2022/04/28 08:12:09;;;;;;;5.60;2.65;;;;;;;24.98;22.89;103285.31;5050294;28;20031;-75
2022/04/28 08:14:34;;;;;;;7.20;2.50;;;;;;;25.64;22.13;103287.56;5032719;28;20021;-75
2022/04/28 08:17:00;;;;;;;6.43;2.63;;;;;;;27.12;21.38;103281.94;5045306;28;20036;-75
2022/04/28 08:19:25;;;;;;;9.73;2.67;;;;;;;26.47;21.13;103283.66;5047968;28;20504;-75
2022/04/28 08:21:51;;;;;;;6.82;2.55;;;;;;;27.19;21.03;103278.06;5049073;28;20408;-75
2022/04/28 08:24:16;;;;;;;6.82;2.70;;;;;;;26.51;20.85;103286.13;5051632;28;20036;-75
2022/04/28 08:26:42;;;;;;;6.00;2.80;;;;;;;27.12;20.65;103284.63;5049141;28;20029;-74
2022/04/28 08:29:08;;;;;;;5.85;2.60;;;;;;;26.08;21.44;103277.94;5048444;28;20025;-75
2022/04/28 08:31:36;;;;;;;9.07;3.20;;;;;;;23.88;23.14;103283.22;5041031;28;20060;-75
2022/04/28 08:34:01;;;;;;;4.00;2.17;;;;;;;25.14;22.14;103283.88;5029679;28;20473;-75
2022/04/28 08:36:27;;;;;;;6.60;1.98;;;;;;;25.18;23.95;103280.19;5030575;28;20057;-75
2022/04/28 08:38:55;;;;;;;8.68;2.40;;;;;;;25.73;22.00;103282.75;5037684;28;20029;-75
2022/04/28 08:41:30;;;;;;;7.95;2.40;;;;;;;26.19;21.15;103280.22;5050529;28;20079;-75
2022/04/28 08:43:59;;;;;;;9.57;2.30;;;;;;;24.58;23.61;103286.50;5040601;28;20030;-74
2022/04/28 08:49:12;;;;;;;9.90;2.67;;;;;;;25.60;22.63;103269.88;5039667;28;20106;-75
2022/04/28 08:51:38;;;;;;;10.27;2.88;;;;;;;25.29;23.31;103273.56;5050601;28;20028;-75
2022/04/28 08:54:04;;;;;;;7.72;2.72;;;;;;;26.41;22.38;103274.03;5049906;28;20495;-75
2022/04/28 08:56:30;;;;;;;10.02;2.95;;;;;;;27.43;20.75;103272.59;5031672;28;20045;-75
2022/04/28 08:58:55;;;;;;;5.90;2.05;;;;;;;26.69;21.66;103270.25;5047884;28;20047;-75
2022/04/28 09:01:25;;;;;;;6.18;2.50;;;;;;;24.97;23.08;103265.69;5048515;28;20032;-75
2022/04/28 09:03:51;;;;;;;10.50;2.03;;;;;;;23.39;26.26;103280.00;5048835;28;20439;-75
2022/04/28 09:06:30;;;;;;;10.90;3.55;;;;;;;26.57;22.66;103275.19;5032380;28;20025;-74
2022/04/28 09:08:57;;;;;;;7.53;2.67;;;;;;;26.16;22.02;103268.72;5048548;28;20033;-75
2022/04/28 09:11:28;;;;;;;5.72;2.47;;;;;;;26.84;21.50;103276.84;5049128;28;20040;-75
2022/04/28 09:14:10;;;;;;;4.22;2.58;;;;;;;26.66;22.07;103279.28;5039420;28;20384;-75
2022/04/28 09:16:49;;;;;;;7.68;2.58;;;;;;;26.52;22.01;103282.53;5028339;28;20453;-74
2022/04/28 09:19:25;;;;;;;7.72;2.22;;;;;;;27.32;20.75;103274.84;5029798;28;20076;-74
2022/04/28 09:22:05;;;;;;;13.80;2.90;;;;;;;27.84;21.06;103258.28;5030151;28;20054;-75
2022/04/28 09:24:31;;;;;;;12.32;2.97;;;;;;;27.85;20.51;103263.59;5044435;28;20029;-75
2022/04/28 09:26:57;;;;;;;5.22;2.47;;;;;;;26.45;21.80;103264.94;5045404;28;20035;-75
2022/04/28 09:29:25;;;;;;;7.40;2.45;;;;;;;26.83;21.62;103267.03;5050709;28;20119;-75
2022/04/28 09:31:52;;;;;;;6.03;3.50;;;;;;;26.99;21.61;103259.25;5049706;28;20522;-75
2022/04/28 09:34:21;;;;;;;4.00;2.13;;;;;;;28.48;20.27;103259.78;5032751;28;20042;-75
2022/04/28 09:36:48;;;;;;;6.60;2.40;;;;;;;28.20;20.69;103253.03;5029835;28;20112;-75
2022/04/28 09:44:46;;;;;;;11.35;2.97;;;;;;;26.55;21.79;103266.31;5047471;28;20504;-75
2022/04/28 09:47:11;;;;;;;4.80;2.50;;;;;;;27.55;20.55;103258.63;5048159;28;20029;-76
2022/04/28 09:49:37;;;;;;;3.85;2.03;;;;;;;25.97;21.44;103268.53;5028760;28;20092;-76
2022/04/28 09:52:02;;;;;;;7.70;2.60;;;;;;;26.29;21.33;103264.66;5028796;28;20026;-75
2022/04/28 09:54:32;;;;;;;5.28;2.35;;;;;;;27.70;19.97;103265.13;5042785;28;20024;-75
2022/04/28 09:56:58;;;;;;;4.57;2.08;;;;;;;26.19;22.25;103264.13;5048157;28;20040;-74
2022/04/28 09:59:23;;;;;;;8.38;2.70;;;;;;;26.41;20.88;103257.94;5052337;28;20091;-74
2022/04/28 10:01:49;;;;;;;6.07;2.33;;;;;;;26.39;20.74;103266.06;5052584;28;20033;-75
2022/04/28 10:04:14;;;;;;;4.38;2.30;;;;;;;26.49;21.56;103265.66;5051694;28;20020;-74
2022/04/28 10:06:40;;;;;;;5.15;2.10;;;;;;;24.00;23.42;103268.63;5051027;28;20025;-75
2022/04/28 10:09:12;;;;;;;4.60;2.03;;;;;;;26.44;21.96;103256.97;5054296;28;20031;-75
2022/04/28 10:11:38;;;;;;;4.03;2.25;;;;;;;26.09;21.40;103252.03;5052612;28;20032;-76
2022/04/28 10:14:06;;;;;;;3.75;2.33;;;;;;;28.03;20.37;103248.44;5053775;28;20048;-74
2022/04/28 10:16:32;;;;;;;3.88;2.38;;;;;;;26.82;21.24;103255.44;5038486;28;20021;-75
2022/04/28 10:19:08;;;;;;;4.85;2.75;;;;;;;26.95;20.61;103252.25;5033689;28;20482;-74
2022/04/28 10:21:47;;;;;;;7.63;2.65;;;;;;;26.43;20.62;103258.75;5032641;28;20072;-76
2022/04/28 10:32:55;;;;;;;9.57;2.65;;;;;;;25.74;21.65;103252.34;5034009;28;20040;-75
2022/04/28 10:35:31;;;;;;;6.25;3.00;;;;;;;27.34;20.73;103243.44;5043631;28;20028;-76
2022/04/28 10:38:09;;;;;;;7.03;2.70;;;;;;;24.99;23.65;103249.59;5040144;28;20170;-75
2022/04/28 10:40:58;;;;;;;5.10;2.63;;;;;;;25.13;22.00;103260.72;5052080;28;20388;-76
2022/04/28 10:43:30;;;;;;;3.28;2.38;;;;;;;26.24;22.15;103254.13;5052954;28;20025;-74
2022/04/28 10:45:57;;;;;;;8.15;3.03;;;;;;;27.41;20.32;103253.00;5050900;28;20132;-75
2022/04/28 10:48:42;;;;;;;5.15;2.20;;;;;;;27.71;19.94;103244.50;5046945;28;20112;-75
2022/04/28 10:51:18;;;;;;;5.13;2.60;;;;;;;27.19;20.16;103250.31;5073440;28;20049;-75
2022/04/28 10:53:58;;;;;;;9.98;2.75;;;;;;;26.91;21.01;103247.03;5051555;28;20504;-75
2022/04/28 10:56:25;;;;;;;8.43;3.35;;;;;;;27.29;20.10;103245.47;5050573;28;20025;-75
2022/04/28 10:58:55;;;;;;;5.20;3.10;;;;;;;26.77;21.46;103252.06;5050739;28;20472;-75
2022/04/28 11:01:26;;;;;;;5.18;2.70;;;;;;;27.26;21.78;103244.63;5051309;28;20389;-75
2022/04/28 11:03:57;;;;;;;7.68;2.70;;;;;;;25.33;23.32;103259.19;5051617;28;20051;-75
2022/04/28 11:06:28;;;;;;;6.18;2.67;;;;;;;26.73;21.07;103253.13;5050663;28;20125;-75
2022/04/28 11:08:55;;;;;;;8.48;3.47;;;;;;;26.59;21.85;103254.53;5043424;28;20076;-75
2022/04/28 11:11:24;;;;;;;7.43;2.80;;;;;;;26.92;21.10;103256.78;5067349;28;20025;-75
2022/04/28 11:13:59;;;;;;;7.30;3.22;;;;;;;25.27;23.07;103248.69;5032708;28;20029;-75
2022/04/28 11:16:26;;;;;;;5.78;2.83;;;;;;;26.34;21.14;103251.09;5032421;28;20029;-75
2022/04/28 11:18:54;;;;;;;5.70;3.10;;;;;;;26.28;21.42;103243.28;5073519;28;20033;-75
2022/04/28 11:21:21;;;;;;;8.07;2.85;;;;;;;28.84;20.07;103226.66;5064874;28;20095;-75
2022/04/28 11:23:48;;;;;;;5.10;2.88;;;;;;;28.26;20.29;103238.41;5030423;28;20021;-74
2022/04/28 11:26:13;;;;;;;6.82;3.08;;;;;;;28.35;19.61;103231.75;5068420;28;20068;-75
2022/04/28 11:28:41;;;;;;;6.07;2.90;;;;;;;26.27;22.15;103244.19;5040194;28;20021;-75
2022/04/28 11:31:09;;;;;;;9.13;3.72;;;;;;;24.72;23.29;103239.75;5041024;28;20039;-75
2022/04/28 11:33:34;;;;;;;9.57;3.33;;;;;;;25.97;23.13;103233.72;5037882;28;20028;-75
2022/04/28 11:36:01;;;;;;;5.13;3.40;;;;;;;27.31;21.61;103232.81;5042560;28;20033;-74
2022/04/28 11:38:28;;;;;;;7.00;3.58;;;;;;;26.43;21.48;103256.06;5026042;28;20095;-75
2022/04/28 11:41:03;;;;;;;6.47;3.17;;;;;;;28.20;20.88;103231.53;5038370;28;20098;-75
2022/04/28 11:43:34;;;;;;;7.15;3.60;;;;;;;27.28;21.19;103230.28;5037091;28;20073;-75
2022/04/28 11:46:00;;;;;;;7.88;3.45;;;;;;;25.91;22.55;103230.31;5042226;28;20033;-75
2022/04/28 11:48:30;;;;;;;6.75;3.50;;;;;;;25.99;21.74;103229.16;5050789;28;20029;-75
2022/04/28 11:51:05;;;;;;;6.10;3.67;;;;;;;26.03;22.25;103225.47;5035605;28;20628;-75
2022/04/28 11:53:42;;;;;;;5.70;4.00;;;;;;;27.19;21.80;103224.38;5036334;28;20119;-76